Time;durP1;ratioP1;P1;durP2;ratioP2;P2;SDS_P1;SDS_P2;PMS_P1;PMS_P2;Temp;Humidity;BMP_temperature;BMP_pressure;BME280_temperature;BME280_humidity;BME280_pressure;Samples;Min_cycle;Max_cycle;Signal;HPM_P1;HPM_P2
2021/06/17 00:01:28;;;;;;;;;;;;;;;;;;;;;
2021/06/17 00:06:56;;;;;;;14.75;9.60;;;;;;;17.17;67.75;98937.05;262567;1089;25925;-73
2021/06/17 00:12:13;;;;;;;14.63;10.30;;;;;;;17.11;67.92;98946.49;262026;1090;28885;-73
2021/06/17 00:18:02;;;;;;;14.55;10.75;;;;;;;17.05;68.01;98940.45;262546;1090;24183;-73
2021/06/17 00:23:32;;;;;;;;;;;;;;;;;;;;;
2021/06/17 00:29:25;;;;;;;13.85;10.53;;;;;;;16.83;68.31;98952.33;262525;1090;22825;-73
2021/06/17 00:34:50;;;;;;;12.50;11.20;;;;;;;16.76;69.03;98944.72;262963;1090;23007;-72
2021/06/17 00:40:58;;;;;;;;;;;;;;;;;;;;;
2021/06/17 00:46:37;;;;;;;13.40;9.85;;;;;;;16.65;69.33;98939.98;261864;1090;22816;-72
2021/06/17 00:52:24;;;;;;;;;;;;;;;16.59;69.72;98944.78;262357;1090;22812;-72
2021/06/17 00:58:14;;;;;;;;;;;;;;;;;;;;;
2021/06/17 01:03:24;;;;;;;12.95;10.45;;;;;;;16.41;69.93;98942.15;262517;1090;22882;-71
2021/06/17 01:08:55;;;;;;;13.73;10.97;;;;;;;16.37;70.17;98935.02;262492;1088;22817;-72
2021/06/17 01:14:35;;;;;;;14.40;11.70;;;;;;;16.34;70.21;98949.15;262233;1089;26293;-71
2021/06/17 01:21:12;;;;;;;;;;;;;;;;;;;;;
2021/06/17 01:27:39;;;;;;;11.33;9.97;;;;;;;16.29;70.71;98936.61;262205;1090;22917;-72
2021/06/17 01:33:16;;;;;;;13.00;11.40;;;;;;;16.26;70.96;98939.96;262800;1089;26398;-72
2021/06/17 01:38:40;;;;;;;15.00;11.80;;;;;;;16.20;71.13;98928.53;262857;1089;22826;-72
2021/06/17 01:43:54;;;;;;;13.15;11.00;;;;;;;16.13;71.26;98930.94;262868;1090;22824;-72
2021/06/17 01:48:59;;;;;;;14.25;10.55;;;;;;;16.06;71.37;98933.31;262535;1090;22795;-72
2021/06/17 01:54:20;;;;;;;12.60;11.15;;;;;;;15.99;71.33;98935.71;262939;1090;22814;-73
2021/06/17 01:59:40;;;;;;;12.17;10.17;;;;;;;15.92;71.45;98936.19;262006;1090;22918;-72
2021/06/17 02:05:57;;;;;;;14.70;11.67;;;;;;;15.87;72.19;98944.48;262512;1090;22806;-73
2021/06/17 02:12:54;;;;;;;;;;;;;;;;;;;;;
2021/06/17 02:19:22;;;;;;;13.90;10.85;;;;;;;15.77;72.37;98932.06;262339;1090;22806;-72
2021/06/17 02:24:54;;;;;;;13.70;12.25;;;;;;;15.72;72.58;98927.63;261948;1089;26075;-72
2021/06/17 02:30:12;;;;;;;11.00;9.30;;;;;;;15.66;72.68;98915.38;262768;1090;24337;-71
2021/06/17 02:35:50;;;;;;;16.53;10.97;;;;;;;15.62;72.92;98913.64;262748;1090;25995;-72
2021/06/17 02:41:47;;;;;;;15.50;11.27;;;;;;;15.64;73.22;98922.20;261938;1090;22863;-73
2021/06/17 02:47:54;;;;;;;16.30;12.20;;;;;;;15.61;72.99;98912.05;261948;1090;22816;-73
2021/06/17 02:53:31;;;;;;;12.70;10.40;;;;;;;15.59;73.19;98916.98;262599;1090;26296;-72
2021/06/17 02:59:26;;;;;;;11.00;9.90;;;;;;;15.56;73.32;98924.59;261886;1090;22813;-73
2021/06/17 03:05:16;;;;;;;15.55;11.80;;;;;;;15.64;73.63;98922.20;262459;1090;22947;-72
2021/06/17 03:10:45;;;;;;;13.95;11.05;;;;;;;15.70;73.52;98931.75;262870;1089;22805;-73
2021/06/17 03:16:49;;;;;;;14.70;12.60;;;;;;;15.77;73.73;98921.26;262084;1090;22809;-72
2021/06/17 03:22:46;;;;;;;13.47;10.93;;;;;;;16.15;73.86;98934.09;262791;1089;22873;-72
2021/06/17 03:28:13;;;;;;;14.90;11.80;;;;;;;16.62;73.44;98929.81;262813;1089;22867;-73
2021/06/17 03:34:08;;;;;;;13.53;11.28;;;;;;;17.14;73.38;98917.95;262839;1090;26524;-72
2021/06/17 03:40:17;;;;;;;19.40;13.00;;;;;;;17.75;72.59;98933.75;262870;1090;23279;-72
2021/06/17 03:47:00;;;;;;;;;;;;;;;;;;;;;
2021/06/17 04:00:11;;;;;;;13.00;11.53;;;;;;;19.35;69.28;98927.77;262443;1089;22785;-72
2021/06/17 04:06:25;;;;;;;;;;;;;;;;;;;;;
2021/06/17 04:12:18;;;;;;;14.75;12.45;;;;;;;19.77;66.86;98934.78;261942;1090;22946;-72
2021/06/17 04:17:53;;;;;;;14.45;12.95;;;;;;;19.69;67.73;98941.15;261920;1090;22789;-72
2021/06/17 04:24:05;;;;;;;;;;;;;;;;;;;;;
2021/06/17 04:29:37;;;;;;;14.55;12.93;;;;;;;19.39;68.30;98934.10;261878;1088;26050;-72
2021/06/17 04:35:00;;;;;;;14.23;12.73;;;;;;;19.25;68.38;98934.47;261885;1090;25969;-73
2021/06/17 04:40:50;;;;;;;;;;;;;;;;;;;;;
2021/06/17 04:53:08;;;;;;;;;;;;;;;;;;;;;
2021/06/17 04:58:47;;;;;;;;;;;;;;;;;;;;;
2021/06/17 05:04:13;;;;;;;17.03;12.73;;;;;;;19.38;69.47;98939.88;262955;1090;22812;-71
2021/06/17 05:22:47;;;;;;;15.50;12.37;;;;;;;19.85;69.15;98946.66;261933;1090;24498;-73
2021/06/17 05:28:04;;;;;;;13.63;12.23;;;;;;;20.02;69.24;98943.66;261878;1090;22943;-73
2021/06/17 05:33:32;;;;;;;13.77;11.47;;;;;;;20.20;68.63;98960.41;261918;1090;22972;-72
2021/06/17 05:39:44;;;;;;;;;;;;;;;;;;;;;
2021/06/17 05:44:54;;;;;;;14.63;11.77;;;;;;;20.74;68.26;98959.09;263133;1089;22873;-70
2021/06/17 05:50:13;;;;;;;12.67;11.43;;;;;;;20.94;67.52;98970.06;262886;1089;22798;-71
2021/06/17 05:55:20;;;;;;;12.38;10.03;;;;;;;21.14;67.64;98973.63;263193;1089;25768;-72
2021/06/17 06:00:31;;;;;;;12.30;9.38;;;;;;;21.33;66.87;98970.95;263060;1090;22865;-71
2021/06/17 06:06:01;;;;;;;12.70;9.53;;;;;;;21.56;66.43;98964.87;263905;1089;22942;-70
2021/06/17 06:11:22;;;;;;;10.70;9.43;;;;;;;21.81;66.05;98980.93;263148;1089;22832;-71
2021/06/17 06:16:33;;;;;;;13.20;9.08;;;;;;;21.96;64.69;98985.52;263134;1090;22777;-71
2021/06/17 06:21:58;;;;;;;9.10;8.20;;;;;;;22.12;64.10;98985.45;264072;1089;22962;-71
2021/06/17 06:27:13;;;;;;;8.98;8.08;;;;;;;22.34;64.26;98986.67;264155;1089;23765;-71
2021/06/17 06:32:20;;;;;;;10.33;8.18;;;;;;;22.55;63.52;98996.38;263805;1089;26254;-71
2021/06/17 06:37:49;;;;;;;;;;;;;;;;;;;;;
2021/06/17 06:43:36;;;;;;;10.20;8.38;;;;;;;23.05;62.28;98991.73;264195;1089;22793;-72
2021/06/17 06:48:40;;;;;;;9.95;8.95;;;;;;;23.27;61.54;98994.83;263509;1089;22805;-72
2021/06/17 06:53:44;;;;;;;9.93;8.93;;;;;;;23.40;61.15;98998.91;263027;1090;26308;-73
2021/06/17 06:58:51;;;;;;;11.63;9.18;;;;;;;23.59;60.57;98999.97;263509;1090;23275;-71
2021/06/17 07:04:18;;;;;;;9.70;8.78;;;;;;;23.85;60.58;99004.57;262751;1088;22812;-72
2021/06/17 07:09:58;;;;;;;12.28;9.30;;;;;;;24.08;59.58;99009.19;262276;1090;24088;-72
2021/06/17 07:15:03;;;;;;;9.40;8.43;;;;;;;24.30;59.56;98999.23;263295;1089;23374;-73
2021/06/17 07:25:59;;;;;;;;;;;;;;;;;;;;;
2021/06/17 07:31:32;;;;;;;11.45;8.45;;;;;;;24.97;57.31;99000.26;263340;1089;23797;-72
2021/06/17 07:43:01;;;;;;;9.13;7.78;;;;;;;25.45;55.73;99021.39;263391;1089;22788;-72
2021/06/17 07:48:26;;;;;;;15.90;8.45;;;;;;;25.70;55.80;99016.04;264790;1089;26249;-72
2021/06/17 07:53:29;;;;;;;10.63;9.53;;;;;;;25.79;55.01;99023.91;263468;1090;22948;-72
2021/06/17 07:59:12;;;;;;;9.93;8.95;;;;;;;26.02;54.55;99036.57;262982;1089;22886;-72
2021/06/17 08:04:15;;;;;;;8.95;8.05;;;;;;;26.10;53.18;99036.20;263063;1090;24202;-72
2021/06/17 08:09:22;;;;;;;9.50;8.65;;;;;;;26.18;53.44;99041.74;262928;1089;22877;-72
2021/06/17 08:14:40;;;;;;;9.83;8.57;;;;;;;26.39;52.97;99041.80;262847;1090;22857;-71
2021/06/17 08:20:20;;;;;;;;;;;;;;;;;;;;;
2021/06/17 08:25:51;;;;;;;12.70;8.50;;;;;;;26.69;52.08;99057.17;262921;1090;22787;-72
2021/06/17 08:30:55;;;;;;;8.93;8.03;;;;;;;26.93;51.51;99044.66;263564;1089;22856;-72
2021/06/17 08:36:25;;;;;;;8.40;7.25;;;;;;;27.21;50.87;99048.57;263412;1089;23421;-71
2021/06/17 08:42:08;;;;;;;8.30;7.50;;;;;;;27.46;49.52;99047.77;263647;1088;22784;-71
2021/06/17 08:47:57;;;;;;;7.28;6.55;;;;;;;27.57;48.37;99043.02;263479;1089;22805;-73
2021/06/17 08:53:36;;;;;;;7.53;6.83;;;;;;;27.76;48.28;99041.80;262748;1088;26274;-73
2021/06/17 08:59:03;;;;;;;;;;;;;;;;;;;;;
2021/06/17 09:04:56;;;;;;;7.10;6.40;;;;;;;28.10;47.62;99057.03;263191;1089;23138;-71
2021/06/17 09:10:18;;;;;;;7.10;6.43;;;;;;;28.26;46.79;99045.54;262735;1090;22797;-72
2021/06/17 09:16:17;;;;;;;;;;;;;;;;;;;;;
2021/06/17 09:21:30;;;;;;;6.28;5.73;;;;;;;28.11;45.78;99042.09;263268;1089;22815;-71
2021/06/17 09:27:18;;;;;;;7.18;6.45;;;;;;;28.17;45.08;99035.74;262955;1088;22821;-71
2021/06/17 09:34:02;;;;;;;;;;;;;;;;;;;;;
2021/06/17 09:40:22;;;;;;;6.35;5.75;;;;;;;28.25;44.47;99028.23;262984;1089;22949;-71
2021/06/17 09:45:41;;;;;;;6.23;5.63;;;;;;;28.28;44.41;99024.67;262911;1089;22797;-72
2021/06/17 09:51:44;;;;;;;6.83;6.23;;;;;;;28.40;44.07;99039.17;262746;1089;22813;-71
2021/06/17 09:57:34;;;;;;;6.73;5.93;;;;;;;28.60;43.95;99037.47;262796;1089;22785;-71
2021/06/17 10:03:19;;;;;;;6.33;5.70;;;;;;;28.74;43.44;99028.34;262945;1089;27132;-72
2021/06/17 10:09:21;;;;;;;6.30;5.60;;;;;;;28.85;43.22;99033.78;262442;1090;24805;-72
2021/06/17 10:14:57;;;;;;;;;;;;;;;;;;;;;
2021/06/17 10:21:02;;;;;;;5.73;5.23;;;;;;;29.14;42.69;99034.33;262559;1090;22812;-73
2021/06/17 10:26:19;;;;;;;6.10;5.60;;;;;;;29.38;42.07;99031.77;262975;1089;22830;-72
2021/06/17 10:32:11;;;;;;;6.90;6.30;;;;;;;29.66;41.53;99035.39;262825;1090;23414;-72
2021/06/17 10:37:51;;;;;;;6.50;5.90;;;;;;;29.67;40.37;99037.73;263104;1090;22785;-73
2021/06/17 10:43:01;;;;;;;5.80;5.28;;;;;;;29.59;39.92;99025.23;263386;1089;22777;-72
2021/06/17 10:48:34;;;;;;;5.13;4.73;;;;;;;29.67;39.90;99031.44;262871;1090;22901;-73
2021/06/17 10:53:58;;;;;;;4.43;4.13;;;;;;;29.84;39.61;99024.97;262782;1090;25976;-73
2021/06/17 10:59:02;;;;;;;5.23;4.83;;;;;;;29.88;39.34;99018.61;262864;1089;22813;-72
2021/06/17 11:04:29;;;;;;;4.97;4.50;;;;;;;30.03;39.46;99017.23;263162;1090;22927;-72
2021/06/17 11:09:57;;;;;;;;;;;;;;;;;;;;;
2021/06/17 11:15:35;;;;;;;6.18;5.53;;;;;;;30.14;37.89;99003.28;262946;1090;26008;-72
2021/06/17 11:20:46;;;;;;;5.20;4.77;;;;;;;30.23;37.75;98998.01;262876;1090;22797;-72
2021/06/17 11:25:57;;;;;;;4.80;4.40;;;;;;;30.26;38.00;98993.64;262412;1090;23397;-68
2021/06/17 11:31:04;;;;;;;5.50;5.00;;;;;;;30.35;37.21;98985.63;263299;1090;25948;-68
2021/06/17 11:36:13;;;;;;;4.80;4.40;;;;;;;30.39;37.56;98980.83;263316;1089;24253;-68
2021/06/17 11:41:26;;;;;;;5.03;4.63;;;;;;;30.27;36.99;98982.16;261632;1090;24327;-70
2021/06/17 11:46:40;;;;;;;8.28;4.53;;;;;;;30.09;36.43;98976.89;262622;1089;22788;-68
2021/06/17 11:52:14;;;;;;;5.08;4.68;;;;;;;30.04;36.40;98972.63;261048;1089;22816;-70
2021/06/17 11:57:27;;;;;;;5.05;4.65;;;;;;;30.06;35.64;98972.20;263465;1089;26252;-69
2021/06/17 12:03:07;;;;;;;;;;;;;;;;;;;;;
2021/06/17 12:08:45;;;;;;;4.73;4.33;;;;;;;30.34;37.12;98948.90;263087;1090;22952;-71
2021/06/17 12:13:55;;;;;;;5.68;5.15;;;;;;;30.57;36.60;98954.91;263019;1089;22873;-71
2021/06/17 12:19:14;;;;;;;5.13;4.63;;;;;;;30.80;36.57;98967.95;262952;1089;23602;-71
2021/06/17 12:24:26;;;;;;;5.88;5.38;;;;;;;30.95;36.29;98960.17;262549;1090;22788;-71
2021/06/17 12:29:30;;;;;;;5.70;5.30;;;;;;;30.96;35.71;98968.08;262951;1089;22869;-71
2021/06/17 12:34:43;;;;;;;5.83;5.20;;;;;;;30.96;35.73;98961.75;262607;1089;22779;-71
2021/06/17 12:40:27;;;;;;;5.70;5.30;;;;;;;30.85;35.89;98959.16;262721;1089;22882;-71
2021/06/17 12:46:36;;;;;;;5.60;5.10;;;;;;;30.81;35.74;98956.47;262722;1089;23173;-72
2021/06/17 12:52:32;;;;;;;5.65;5.18;;;;;;;30.93;35.83;98957.84;262657;1089;22902;-72
2021/06/17 12:57:57;;;;;;;5.83;5.00;;;;;;;31.04;35.98;98963.20;262628;1088;22806;-71
2021/06/17 13:03:30;;;;;;;5.20;4.65;;;;;;;31.04;35.36;98944.62;262706;1090;26385;-72
2021/06/17 13:08:56;;;;;;;5.00;4.60;;;;;;;30.96;34.82;98939.63;263167;1090;22983;-72
2021/06/17 13:14:09;;;;;;;4.80;4.13;;;;;;;30.95;35.63;98946.34;262996;1090;26411;-72
2021/06/17 13:19:57;;;;;;;4.68;4.20;;;;;;;30.94;34.17;98942.04;263306;1090;24077;-70
2021/06/17 13:25:08;;;;;;;5.17;4.17;;;;;;;30.97;34.63;98941.19;262412;1090;22786;-71
2021/06/17 13:30:16;;;;;;;4.70;4.30;;;;;;;31.12;35.02;98936.21;262396;1090;22806;-71
2021/06/17 13:35:25;;;;;;;4.20;3.90;;;;;;;31.23;34.17;98936.78;262727;1088;22836;-71
2021/06/17 13:40:49;;;;;;;5.23;4.83;;;;;;;31.42;34.73;98942.73;263043;1089;22786;-71
2021/06/17 13:46:14;;;;;;;;;;;;;;;;;;;;;
2021/06/17 13:51:27;;;;;;;4.90;4.48;;;;;;;31.64;33.75;98937.58;262646;1089;22972;-72
2021/06/17 13:56:46;;;;;;;5.10;4.30;;;;;;;31.59;32.82;98932.53;262893;1088;26252;-71
2021/06/17 14:01:59;;;;;;;5.05;4.65;;;;;;;31.48;32.79;98925.21;263223;1090;22850;-71
2021/06/17 14:07:06;;;;;;;4.67;4.27;;;;;;;31.53;32.52;98930.23;263206;1090;25999;-71
2021/06/17 14:12:26;;;;;;;;;;;;;;;;;;;;;
2021/06/17 14:17:37;;;;;;;4.98;4.58;;;;;;;31.74;32.75;98925.48;262450;1090;26311;-71
2021/06/17 14:22:44;;;;;;;5.88;4.80;;;;;;;31.75;33.19;98915.97;261864;1090;22784;-72
2021/06/17 14:27:51;;;;;;;5.60;5.20;;;;;;;31.74;33.05;98914.41;262463;1089;22793;-72
2021/06/17 14:33:00;;;;;;;5.00;4.50;;;;;;;31.81;33.20;98907.94;262627;1090;22767;-72
2021/06/17 14:38:15;;;;;;;5.35;4.63;;;;;;;31.83;33.15;98897.99;261803;1089;22950;-72
2021/06/17 14:43:26;;;;;;;5.13;4.63;;;;;;;31.81;32.45;98900.39;262402;1089;22862;-72
2021/06/17 14:48:33;;;;;;;5.40;4.90;;;;;;;31.80;32.83;98901.63;262601;1090;22853;-72
2021/06/17 14:53:48;;;;;;;5.38;4.88;;;;;;;31.76;32.74;98897.36;262236;1090;23454;-71
2021/06/17 14:59:23;;;;;;;6.87;5.13;;;;;;;31.67;33.05;98897.95;261853;1090;22833;-71
2021/06/17 15:04:44;;;;;;;5.23;4.83;;;;;;;31.57;33.87;98889.41;262342;1090;22951;-72
2021/06/17 15:09:51;;;;;;;;;;;;;;;31.56;33.35;98887.88;262770;1089;22786;-75
2021/06/17 15:16:03;;;;;;;6.83;5.48;;;;;;;31.49;33.53;98893.53;262143;1090;21466;-75
2021/06/17 15:23:06;;;;;;;6.00;5.43;;;;;;;31.37;33.94;98886.68;262433;1089;22806;-71
2021/06/17 15:37:01;;;;;;;5.90;5.33;;;;;;;31.26;33.27;98875.05;261669;1088;22842;-72
2021/06/17 15:50:22;;;;;;;6.85;6.08;;;;;;;31.11;34.54;98871.02;262513;1090;22785;-72
2021/06/17 15:57:02;;;;;;;;;;;;;;;;;;;;;
2021/06/17 16:10:48;;;;;;;6.05;5.45;;;;;;;30.89;33.22;98868.63;262588;1090;22940;-72
2021/06/17 16:24:26;;;;;;;;;;;;;;;;;;;;;
2021/06/17 16:31:25;;;;;;;6.15;5.65;;;;;;;30.73;33.19;98877.62;262079;1090;22940;-72
2021/06/17 16:38:24;;;;;;;;;;;;;;;;;;;;;
2021/06/17 16:45:10;;;;;;;7.10;6.40;;;;;;;30.49;33.69;98883.16;262229;1089;24330;-72
2021/06/17 16:52:27;;;;;;;6.73;6.13;;;;;;;30.43;33.68;98887.63;262341;1090;26002;-71
2021/06/17 17:06:41;;;;;;;;;;;;;;;;;;;;;
2021/06/17 17:13:29;;;;;;;;;;;;;;;;;;;;;
2021/06/17 17:34:07;;;;;;;8.10;7.30;;;;;;;34.47;32.04;98905.47;261738;1090;25967;-72
2021/06/17 17:40:31;;;;;;;9.87;7.40;;;;;;;33.47;31.54;98903.77;261949;1089;24484;-74
2021/06/17 17:46:15;;;;;;;7.85;7.23;;;;;;;31.95;33.20;98907.61;262518;1090;25996;-72
2021/06/17 17:52:25;;;;;;;7.80;7.10;;;;;;;30.43;34.54;98915.27;261887;1090;26740;-72
2021/06/17 18:06:34;;;;;;;8.05;7.35;;;;;;;27.92;38.31;98922.19;262089;1090;22943;-72
2021/06/17 18:13:33;;;;;;;;;;;;;;;;;;;;;
2021/06/17 18:19:29;;;;;;;;;;;;;;;;;;;;;
2021/06/17 18:26:28;;;;;;;8.10;7.40;;;;;;;26.02;41.46;98921.30;261777;1090;25733;-71
2021/06/17 18:33:24;;;;;;;9.40;7.83;;;;;;;25.60;42.20;98928.98;262266;1090;23474;-72
2021/06/17 18:46:41;;;;;;;;;;;;;;;;;;;;;
2021/06/17 19:06:20;;;;;;;7.23;6.63;;;;;;;23.79;45.44;98958.80;262482;1089;22941;-71
2021/06/17 19:13:11;;;;;;;;;;;;;;;;;;;;;
2021/06/17 19:34:17;;;;;;;6.65;6.05;;;;;;;22.65;47.80;98984.88;262263;1090;23568;-72
2021/06/17 19:54:57;;;;;;;7.38;6.55;;;;;;;22.03;49.49;98993.87;261713;1088;26261;-74
2021/06/17 19:59:50;;;;;;;7.08;6.38;;;;;;;21.90;49.57;98994.38;261851;1090;26319;-72
2021/06/17 20:05:35;;;;;;;;;;;;;;;;;;;;;
2021/06/17 20:11:25;;;;;;;;;;;;;;;;;;;;;
2021/06/17 20:24:53;;;;;;;6.65;6.10;;;;;;;21.23;50.77;99000.70;262371;1089;25993;-70
2021/06/17 20:31:09;;;;;;;8.55;6.33;;;;;;;21.06;51.24;98999.14;262272;1089;22845;-71
2021/06/17 20:37:48;;;;;;;;;;;;;;;;;;;;;
2021/06/17 20:44:42;;;;;;;7.25;5.93;;;;;;;20.72;52.50;99004.95;262218;1090;22786;-72
2021/06/17 20:51:30;;;;;;;8.05;6.58;;;;;;;20.57;52.96;99014.64;261782;1090;22881;-71
2021/06/17 21:03:51;;;;;;;9.47;7.00;;;;;;;20.34;53.40;99004.34;262513;1089;22806;-71
2021/06/17 21:09:09;;;;;;;8.10;7.03;;;;;;;20.24;53.78;98999.38;262593;1089;22870;-72
2021/06/17 21:14:47;;;;;;;8.20;7.40;;;;;;;20.15;54.07;98998.77;262315;1089;24320;-72
2021/06/17 21:20:12;;;;;;;7.77;6.77;;;;;;;20.11;54.40;98997.88;261927;1090;25877;-72
2021/06/17 21:25:31;;;;;;;7.33;6.63;;;;;;;20.01;54.34;98991.00;262510;1089;26462;-71
2021/06/17 21:31:23;;;;;;;8.13;6.60;;;;;;;19.88;54.49;98989.45;262576;1089;22818;-72
2021/06/17 21:36:47;;;;;;;;;;;;;;;;;;;;;
2021/06/17 21:42:43;;;;;;;8.18;6.85;;;;;;;19.63;55.37;98984.86;262335;1088;22785;-72
2021/06/17 21:49:07;;;;;;;7.75;6.95;;;;;;;19.53;55.64;98984.53;261671;1090;22789;-72
2021/06/17 21:55:33;;;;;;;7.87;7.07;;;;;;;19.46;56.25;98990.55;262026;1090;22832;-72
2021/06/17 22:00:56;;;;;;;8.30;6.90;;;;;;;19.38;56.31;98991.48;262174;1090;25873;-72
2021/06/17 22:06:48;;;;;;;7.55;6.45;;;;;;;19.28;56.35;98987.31;262681;1088;25858;-71
2021/06/17 22:13:05;;;;;;;6.80;6.05;;;;;;;19.20;56.69;98990.94;262621;1090;22901;-73
2021/06/17 22:19:50;;;;;;;9.23;6.43;;;;;;;19.20;56.92;98985.51;262087;1090;22870;-71
2021/06/17 22:26:13;;;;;;;;;;;;;;;;;;;;;
2021/06/17 22:33:17;;;;;;;;;;;;;;;;;;;;;
2021/06/17 22:46:40;;;;;;;8.35;6.70;;;;;;;18.85;57.58;98975.08;261703;1090;22797;-71
2021/06/17 22:53:21;;;;;;;6.37;5.57;;;;;;;18.74;57.63;98972.00;261995;1090;22924;-71
2021/06/17 23:06:46;;;;;;;8.05;6.60;;;;;;;18.54;58.44;98966.33;261529;1090;22883;-72
2021/06/17 23:20:32;;;;;;;7.80;6.40;;;;;;;18.37;59.25;98966.51;261573;1090;22862;-72
2021/06/17 23:27:14;;;;;;;7.45;6.40;;;;;;;18.32;59.69;98974.88;261665;1090;23647;-71
2021/06/17 23:34:01;;;;;;;7.00;5.50;;;;;;;18.24;59.75;98971.92;261579;1089;23016;-71
2021/06/17 23:54:11;;;;;;;;;;;;;;;;;;;;;
